createdAt,value
2018-08-19T00:46:08.395Z,23.09
2018-08-19T00:51:11.726Z,22.91
2018-08-19T00:56:22.394Z,22.91
2018-08-19T02:33:28.193Z,21.69
2018-08-19T02:38:31.536Z,21.65
2018-08-19T02:43:35.647Z,21.60
2018-08-19T03:46:10.478Z,21.11
2018-08-19T03:51:13.813Z,21.11
2018-08-19T03:56:17.143Z,21.04
2018-08-19T05:04:35.824Z,20.60
2018-08-19T05:09:39.162Z,20.52
2018-08-19T05:14:52.140Z,20.51
2018-08-19T05:19:55.487Z,20.41
2018-08-19T05:24:58.823Z,20.48
2018-08-19T05:30:02.150Z,20.48
2018-08-19T05:35:06.250Z,20.60
2018-08-19T05:40:09.647Z,20.73
2018-08-19T05:45:12.988Z,20.87
2018-08-19T05:50:16.314Z,20.94
2018-08-19T05:55:24.224Z,21.09
2018-08-19T06:00:27.539Z,21.16
2018-08-19T06:05:31.650Z,21.44
2018-08-19T06:10:34.978Z,21.61
2018-08-19T06:15:38.302Z,21.71
2018-08-19T06:20:42.411Z,21.80
2018-08-19T06:25:45.756Z,21.85
2018-08-19T06:30:49.090Z,22.02
2018-08-19T06:35:52.431Z,22.21
2018-08-19T06:40:55.766Z,22.23
2018-08-19T06:46:06.305Z,22.42
2018-08-19T06:51:09.660Z,22.54
2018-08-19T06:56:12.979Z,22.70
2018-08-19T07:01:16.321Z,22.66
2018-08-19T07:06:20.423Z,22.82
2018-08-19T07:11:23.753Z,23.03
2018-08-19T07:16:27.880Z,23.21
2018-08-19T07:21:31.983Z,23.30
2018-08-19T07:26:46.097Z,23.30
2018-08-19T07:31:49.818Z,23.43
2018-08-19T07:36:53.632Z,23.54
2018-08-19T07:41:58.185Z,23.65
2018-08-19T07:47:02.110Z,23.60
2018-08-19T07:52:05.721Z,23.77
2018-08-19T07:57:09.264Z,23.79
2018-08-19T08:02:14.180Z,23.92
2018-08-19T08:07:17.743Z,24.06
2018-08-19T08:12:21.423Z,24.22
2018-08-19T08:17:26.516Z,24.32
2018-08-19T08:22:30.111Z,24.43
2018-08-19T08:27:33.838Z,24.49
2018-08-19T08:32:37.408Z,24.64
2018-08-19T08:37:41.103Z,24.82
2018-08-19T08:42:44.795Z,24.75
2018-08-19T08:47:48.561Z,25.04
2018-08-19T08:52:52.245Z,24.98
2018-08-19T08:57:55.840Z,25.10
2018-08-19T09:02:59.477Z,25.23
2018-08-19T09:08:03.113Z,25.30
2018-08-19T09:13:06.686Z,25.31
2018-08-19T09:18:10.333Z,25.50
2018-08-19T09:23:14.054Z,25.58
2018-08-19T09:28:17.628Z,25.55
2018-08-19T09:33:21.196Z,25.82
2018-08-19T09:38:24.531Z,25.83
2018-08-19T09:43:27.875Z,25.75
2018-08-19T09:48:31.343Z,25.95
2018-08-19T09:53:34.672Z,26.09
2018-08-19T09:58:38.003Z,26.16
2018-08-19T10:03:41.344Z,26.28
2018-08-19T10:08:45.433Z,26.37
2018-08-19T10:13:48.767Z,26.51
2018-08-19T10:18:52.350Z,26.46
2018-08-19T10:23:55.689Z,26.67
2018-08-19T10:28:59.018Z,26.80
2018-08-19T10:38:40.553Z,26.80
2018-08-19T10:43:43.998Z,26.98
2018-08-19T10:48:47.651Z,26.99
2018-08-19T10:53:50.989Z,27.07
2018-08-19T10:58:54.322Z,27.18
2018-08-19T11:03:58.423Z,27.29
2018-08-19T11:09:01.768Z,27.27
2018-08-19T11:14:05.861Z,27.17
2018-08-19T11:19:09.187Z,27.45
2018-08-19T11:24:12.512Z,27.54
2018-08-19T11:29:15.838Z,27.55
2018-08-19T11:34:19.163Z,27.69
2018-08-19T11:39:22.514Z,27.74
2018-08-19T11:44:25.831Z,28.11
2018-08-19T11:49:29.171Z,28.22
2018-08-19T11:54:33.275Z,28.32
2018-08-19T11:59:36.607Z,28.38
2018-08-19T12:04:41.392Z,28.55
2018-08-19T12:09:45.139Z,28.37
2018-08-19T12:14:49.321Z,28.29
2018-08-19T12:19:53.610Z,29.08
2018-08-19T12:24:57.211Z,29.63
2018-08-19T12:30:00.743Z,29.67
2018-08-19T12:35:05.090Z,29.98
2018-08-19T12:40:08.445Z,30.16
2018-08-19T12:45:12.535Z,29.79
2018-08-19T12:50:15.904Z,29.81
2018-08-19T12:55:19.228Z,30.30
2018-08-19T13:00:22.568Z,30.94
2018-08-19T13:05:25.890Z,31.35
2018-08-19T13:10:29.222Z,31.07
2018-08-19T13:15:32.568Z,30.72
2018-08-19T13:20:35.920Z,31.34
2018-08-19T13:25:39.253Z,31.92
2018-08-19T13:30:42.652Z,31.96
2018-08-19T13:35:46.234Z,32.23
2018-08-19T13:40:49.824Z,32.71
2018-08-19T13:45:55.167Z,32.58
2018-08-19T13:50:58.582Z,32.77
2018-08-19T13:56:02.053Z,31.81
2018-08-19T14:01:05.501Z,32.08
2018-08-19T14:06:09.073Z,32.74
2018-08-19T14:11:13.515Z,33.47
2018-08-19T14:16:30.211Z,33.51
2018-08-19T14:21:34.720Z,33.68
2018-08-19T14:26:38.185Z,34.37
2018-08-19T14:31:42.393Z,34.71
2018-08-19T14:36:45.869Z,34.07
2018-08-19T14:41:49.270Z,34.58
2018-08-19T14:46:52.641Z,33.68
2018-08-19T14:51:56.860Z,34.37
2018-08-19T14:57:00.503Z,35.63
2018-08-19T15:02:04.605Z,35.97
2018-08-19T15:07:07.934Z,36.79
2018-08-19T15:12:11.293Z,36.63
2018-08-19T15:17:14.641Z,36.26
2018-08-19T15:45:04.071Z,33.69
2018-08-19T15:50:11.386Z,33.77
2018-08-19T15:55:14.720Z,34.53
2018-08-19T16:00:18.398Z,34.56
2018-08-19T16:05:21.747Z,35.10
2018-08-19T16:10:25.086Z,35.61
2018-08-19T16:15:28.421Z,35.77
2018-08-19T16:20:31.767Z,34.68
2018-08-19T16:26:06.073Z,34.44
2018-08-19T16:31:09.476Z,34.07
2018-08-19T16:36:12.851Z,33.72
2018-08-19T16:41:17.526Z,34.08
2018-08-19T16:46:25.276Z,33.76
2018-08-19T16:51:28.614Z,34.04
2018-08-19T16:56:31.990Z,34.33
2018-08-19T17:01:35.379Z,33.81
2018-08-19T17:06:41.402Z,33.53
2018-08-19T17:11:44.738Z,33.37
2018-08-19T17:16:48.073Z,33.00
2018-08-19T17:21:52.168Z,33.21
2018-08-19T17:26:55.522Z,32.91
2018-08-19T17:31:59.602Z,32.86
2018-08-19T17:37:02.944Z,32.71
2018-08-19T17:42:06.347Z,32.55
2018-08-19T17:47:10.481Z,32.48
2018-08-19T17:52:13.863Z,32.41
2018-08-19T17:57:17.208Z,32.07
2018-08-19T18:02:20.523Z,31.84
2018-08-19T18:07:23.863Z,31.69
2018-08-19T18:12:27.194Z,31.74
2018-08-19T18:17:30.547Z,31.65
2018-08-19T18:22:33.882Z,31.44
2018-08-19T18:27:37.220Z,31.42
2018-08-19T18:32:40.555Z,31.41
2018-08-19T18:37:43.890Z,31.32
2018-08-19T18:42:47.234Z,31.27
2018-08-19T18:47:51.336Z,31.17
2018-08-19T18:52:54.666Z,31.00
2018-08-19T18:57:57.995Z,30.82
2018-08-19T19:03:02.088Z,30.70
2018-08-19T19:08:05.446Z,30.59
2018-08-19T19:13:08.762Z,30.60
2018-08-19T19:18:12.874Z,30.48
2018-08-19T19:23:16.273Z,30.35
2018-08-19T19:28:19.603Z,30.25
2018-08-19T19:33:22.931Z,30.17
2018-08-19T19:38:26.266Z,30.11
2018-08-19T19:43:29.590Z,29.94
2018-08-19T19:48:32.925Z,29.84
2018-08-19T19:53:36.298Z,29.69
2018-08-19T19:58:39.638Z,29.53
2018-08-19T20:03:42.957Z,29.26
2018-08-19T20:08:46.298Z,29.04
2018-08-19T20:13:49.629Z,29.04
2018-08-19T20:18:52.964Z,29.00
2018-08-19T20:23:56.316Z,28.90
2018-08-19T20:28:59.665Z,28.69
2018-08-19T20:34:03.833Z,28.54
2018-08-19T20:39:07.163Z,28.44
2018-08-19T20:44:10.504Z,28.31
2018-08-19T20:49:13.874Z,28.12
2018-08-19T20:54:17.198Z,28.04
2018-08-19T20:59:20.539Z,28.00
2018-08-19T21:04:24.026Z,27.85
2018-08-19T21:09:27.350Z,27.74
2018-08-19T21:14:30.759Z,27.58
